Inicio METAR Ruta Wind Satelite

Informe Meteorológico

Fecha: 2020/09/19 20:56:38 Local
2020.09.20 01:56 UTC


Estado: VIGENTE
Operación:VFR
San Andres Isla / Sesquicentenario, Colombia (SKSP) 12-35N 081-43W 6M
2020.09.20 0100 UTC
Wind: from the E (100 degrees) at 3 MPH (3 KT):0
Visibility: greater than 7 mile(s):0
Sky conditions: overcast
Temperature: 78 F (26 C)
Dew Point: 77 F (25 C)
Relative Humidity: 94%
Pressure (altimeter): 29.83 in. Hg (1010 hPa)
ob: SKSP 200100Z 10003KT 9999 FEW010 OVC200 26/25 A2983
cycle: 1

SKSP 200000Z 14003KT 9999 FEW012 OVC200 27/26 A2981
SKSP 192300Z 12004KT 090V160 9999 FEW014 SCT080 BKN200 28/6 A2980
SKSP 192200Z VRB02KT 9999 FEW014 OVC080 29/25 A2980
SKSP 192100Z 12006KT 070V160 9999 FEW014 OVC080 28/25 A2981
SKSP 192000Z 14004KT 080V250 9999 FEW014 OVC080 28/25 A2983 REDZ

2020/09/19 18:42
TAF SKSP 191630Z 1918/2018 09012KT 9999 FEW017 SCT080 PROB40
TEMPO 1918/1921 8000 SHRA SCT015TCU TX32/1918Z TN27/2010Z